sensor_id;sensor_type;location;lat;lon;timestamp;temperature;humidity
2945;DHT22;1482;51.398;7.128;2023-06-10T00:00:17;20.20;1.00
2945;DHT22;1482;51.398;7.128;2023-06-10T00:02:43;20.20;1.00
2945;DHT22;1482;51.398;7.128;2023-06-10T00:05:09;20.20;1.00
2945;DHT22;1482;51.398;7.128;2023-06-10T00:07:35;20.20;1.00
2945;DHT22;1482;51.398;7.128;2023-06-10T00:10:05;20.20;1.00
2945;DHT22;1482;51.398;7.128;2023-06-10T00:12:31;20.20;1.00
2945;DHT22;1482;51.398;7.128;2023-06-10T00:15:03;20.00;1.00
2945;DHT22;1482;51.398;7.128;2023-06-10T00:17:28;20.10;1.00
2945;DHT22;1482;51.398;7.128;2023-06-10T00:19:54;19.90;1.00
2945;DHT22;1482;51.398;7.128;2023-06-10T00:22:20;20.00;1.00
2945;DHT22;1482;51.398;7.128;2023-06-10T00:24:47;20.00;1.00
2945;DHT22;1482;51.398;7.128;2023-06-10T00:27:13;20.00;1.00
2945;DHT22;1482;51.398;7.128;2023-06-10T00:29:38;20.00;1.00
2945;DHT22;1482;51.398;7.128;2023-06-10T00:32:04;19.90;1.00
2945;DHT22;1482;51.398;7.128;2023-06-10T00:34:30;19.90;1.00
2945;DHT22;1482;51.398;7.128;2023-06-10T00:36:57;19.90;1.00
2945;DHT22;1482;51.398;7.128;2023-06-10T00:39:23;19.90;1.00
2945;DHT22;1482;51.398;7.128;2023-06-10T00:41:48;19.90;1.00
2945;DHT22;1482;51.398;7.128;2023-06-10T00:44:14;19.80;1.00
2945;DHT22;1482;51.398;7.128;2023-06-10T00:46:39;19.70;1.00
2945;DHT22;1482;51.398;7.128;2023-06-10T00:49:05;19.60;1.00
2945;DHT22;1482;51.398;7.128;2023-06-10T00:51:31;19.50;1.00
2945;DHT22;1482;51.398;7.128;2023-06-10T00:53:57;19.50;1.00
2945;DHT22;1482;51.398;7.128;2023-06-10T00:56:23;19.50;1.00
2945;DHT22;1482;51.398;7.128;2023-06-10T00:58:48;19.40;1.00
2945;DHT22;1482;51.398;7.128;2023-06-10T01:01:14;19.40;1.00
2945;DHT22;1482;51.398;7.128;2023-06-10T01:03:40;19.30;1.00
2945;DHT22;1482;51.398;7.128;2023-06-10T01:09:11;19.40;1.00
2945;DHT22;1482;51.398;7.128;2023-06-10T01:11:47;19.40;1.00
2945;DHT22;1482;51.398;7.128;2023-06-10T01:14:13;19.30;1.00
2945;DHT22;1482;51.398;7.128;2023-06-10T01:16:39;19.30;1.00
2945;DHT22;1482;51.398;7.128;2023-06-10T01:19:06;19.20;1.00
2945;DHT22;1482;51.398;7.128;2023-06-10T01:21:32;19.20;1.00
2945;DHT22;1482;51.398;7.128;2023-06-10T01:23:58;19.10;1.00
2945;DHT22;1482;51.398;7.128;2023-06-10T01:26:30;19.00;1.00
2945;DHT22;1482;51.398;7.128;2023-06-10T01:29:06;18.90;1.00
2945;DHT22;1482;51.398;7.128;2023-06-10T01:31:42;18.90;1.00
2945;DHT22;1482;51.398;7.128;2023-06-10T01:34:13;19.00;1.00
2945;DHT22;1482;51.398;7.128;2023-06-10T01:36:40;19.00;1.00
2945;DHT22;1482;51.398;7.128;2023-06-10T01:39:08;18.90;1.00
2945;DHT22;1482;51.398;7.128;2023-06-10T01:41:35;18.90;1.00
2945;DHT22;1482;51.398;7.128;2023-06-10T01:44:01;18.90;1.00
2945;DHT22;1482;51.398;7.128;2023-06-10T01:46:27;18.80;1.00
2945;DHT22;1482;51.398;7.128;2023-06-10T01:48:53;18.80;1.00
2945;DHT22;1482;51.398;7.128;2023-06-10T01:51:18;18.80;1.00
2945;DHT22;1482;51.398;7.128;2023-06-10T01:53:44;18.70;1.00
2945;DHT22;1482;51.398;7.128;2023-06-10T01:56:10;18.80;1.00
2945;DHT22;1482;51.398;7.128;2023-06-10T01:58:35;18.80;1.00
2945;DHT22;1482;51.398;7.128;2023-06-10T02:01:01;18.70;1.00
2945;DHT22;1482;51.398;7.128;2023-06-10T02:03:26;18.70;1.00
2945;DHT22;1482;51.398;7.128;2023-06-10T02:05:52;18.60;1.00
2945;DHT22;1482;51.398;7.128;2023-06-10T02:08:18;18.50;1.00
2945;DHT22;1482;51.398;7.128;2023-06-10T02:10:43;18.60;1.00
2945;DHT22;1482;51.398;7.128;2023-06-10T02:13:09;18.60;1.00
2945;DHT22;1482;51.398;7.128;2023-06-10T02:15:34;18.40;1.00
2945;DHT22;1482;51.398;7.128;2023-06-10T02:18:00;18.40;1.00
2945;DHT22;1482;51.398;7.128;2023-06-10T02:20:26;18.40;1.00
2945;DHT22;1482;51.398;7.128;2023-06-10T02:22:51;18.40;1.00
2945;DHT22;1482;51.398;7.128;2023-06-10T02:25:17;18.30;1.00
2945;DHT22;1482;51.398;7.128;2023-06-10T02:27:43;18.30;1.00
2945;DHT22;1482;51.398;7.128;2023-06-10T02:30:09;18.40;1.00
2945;DHT22;1482;51.398;7.128;2023-06-10T02:32:38;18.30;1.00
2945;DHT22;1482;51.398;7.128;2023-06-10T02:35:03;18.30;1.00
2945;DHT22;1482;51.398;7.128;2023-06-10T02:37:29;18.20;1.00
2945;DHT22;1482;51.398;7.128;2023-06-10T02:39:55;18.20;1.00
2945;DHT22;1482;51.398;7.128;2023-06-10T02:42:20;18.10;1.00
2945;DHT22;1482;51.398;7.128;2023-06-10T02:44:46;18.10;1.00
2945;DHT22;1482;51.398;7.128;2023-06-10T02:47:11;18.10;1.00
2945;DHT22;1482;51.398;7.128;2023-06-10T02:49:40;18.10;1.00
2945;DHT22;1482;51.398;7.128;2023-06-10T02:52:06;18.00;1.00
2945;DHT22;1482;51.398;7.128;2023-06-10T02:54:32;18.00;1.00
2945;DHT22;1482;51.398;7.128;2023-06-10T02:56:58;18.00;1.00
2945;DHT22;1482;51.398;7.128;2023-06-10T02:59:23;18.00;1.00
2945;DHT22;1482;51.398;7.128;2023-06-10T03:01:49;17.90;1.00
2945;DHT22;1482;51.398;7.128;2023-06-10T03:04:14;17.90;1.00
2945;DHT22;1482;51.398;7.128;2023-06-10T03:06:40;17.80;1.00
2945;DHT22;1482;51.398;7.128;2023-06-10T03:09:10;17.80;1.00
2945;DHT22;1482;51.398;7.128;2023-06-10T03:11:36;17.80;1.00
2945;DHT22;1482;51.398;7.128;2023-06-10T03:14:02;17.80;1.00
2945;DHT22;1482;51.398;7.128;2023-06-10T03:16:27;17.80;1.00
2945;DHT22;1482;51.398;7.128;2023-06-10T03:18:53;17.80;1.00
2945;DHT22;1482;51.398;7.128;2023-06-10T03:21:19;17.80;1.00
2945;DHT22;1482;51.398;7.128;2023-06-10T03:23:45;17.80;1.00
2945;DHT22;1482;51.398;7.128;2023-06-10T03:26:11;17.70;1.00
2945;DHT22;1482;51.398;7.128;2023-06-10T03:28:37;17.70;1.00
2945;DHT22;1482;51.398;7.128;2023-06-10T03:31:03;17.70;1.00
2945;DHT22;1482;51.398;7.128;2023-06-10T03:33:29;17.60;1.00
2945;DHT22;1482;51.398;7.128;2023-06-10T03:35:55;17.60;1.00
2945;DHT22;1482;51.398;7.128;2023-06-10T03:38:20;17.60;1.00
2945;DHT22;1482;51.398;7.128;2023-06-10T03:40:46;17.60;1.00
2945;DHT22;1482;51.398;7.128;2023-06-10T03:43:12;17.50;1.00
2945;DHT22;1482;51.398;7.128;2023-06-10T03:45:37;17.60;1.00
2945;DHT22;1482;51.398;7.128;2023-06-10T03:48:03;17.60;1.00
2945;DHT22;1482;51.398;7.128;2023-06-10T03:50:29;17.40;1.00
2945;DHT22;1482;51.398;7.128;2023-06-10T03:52:55;17.50;1.00
2945;DHT22;1482;51.398;7.128;2023-06-10T03:55:21;17.70;1.00
2945;DHT22;1482;51.398;7.128;2023-06-10T03:57:47;17.60;1.00
2945;DHT22;1482;51.398;7.128;2023-06-10T04:00:14;17.70;1.00
2945;DHT22;1482;51.398;7.128;2023-06-10T04:02:40;17.80;1.00
2945;DHT22;1482;51.398;7.128;2023-06-10T04:05:14;17.80;1.00
2945;DHT22;1482;51.398;7.128;2023-06-10T04:07:40;17.70;1.00
2945;DHT22;1482;51.398;7.128;2023-06-10T04:10:08;17.80;1.00
2945;DHT22;1482;51.398;7.128;2023-06-10T04:12:34;17.90;1.00
2945;DHT22;1482;51.398;7.128;2023-06-10T04:15:02;17.80;1.00
2945;DHT22;1482;51.398;7.128;2023-06-10T04:17:28;17.90;1.00
2945;DHT22;1482;51.398;7.128;2023-06-10T04:19:53;18.30;1.00
2945;DHT22;1482;51.398;7.128;2023-06-10T04:22:20;19.00;1.00
2945;DHT22;1482;51.398;7.128;2023-06-10T04:24:45;20.00;1.00
2945;DHT22;1482;51.398;7.128;2023-06-10T04:27:11;20.90;1.00
2945;DHT22;1482;51.398;7.128;2023-06-10T04:29:36;21.10;1.00
2945;DHT22;1482;51.398;7.128;2023-06-10T04:32:02;21.50;1.00
2945;DHT22;1482;51.398;7.128;2023-06-10T04:34:28;22.20;1.00
2945;DHT22;1482;51.398;7.128;2023-06-10T04:36:54;22.80;1.00
2945;DHT22;1482;51.398;7.128;2023-06-10T04:39:19;23.50;1.00
2945;DHT22;1482;51.398;7.128;2023-06-10T04:41:45;25.00;1.00
2945;DHT22;1482;51.398;7.128;2023-06-10T04:44:11;26.00;1.00
2945;DHT22;1482;51.398;7.128;2023-06-10T04:46:39;26.20;1.00
2945;DHT22;1482;51.398;7.128;2023-06-10T04:49:05;27.20;1.00
2945;DHT22;1482;51.398;7.128;2023-06-10T04:51:31;27.70;1.00
2945;DHT22;1482;51.398;7.128;2023-06-10T04:54:00;28.20;1.00
2945;DHT22;1482;51.398;7.128;2023-06-10T04:56:29;29.00;1.00
2945;DHT22;1482;51.398;7.128;2023-06-10T04:58:56;28.40;1.00
2945;DHT22;1482;51.398;7.128;2023-06-10T05:01:22;27.90;1.00
2945;DHT22;1482;51.398;7.128;2023-06-10T05:03:47;26.20;1.00
2945;DHT22;1482;51.398;7.128;2023-06-10T05:06:13;25.00;1.00
2945;DHT22;1482;51.398;7.128;2023-06-10T05:08:39;23.80;1.00
2945;DHT22;1482;51.398;7.128;2023-06-10T05:11:04;22.90;1.00
2945;DHT22;1482;51.398;7.128;2023-06-10T05:13:30;22.60;1.00
2945;DHT22;1482;51.398;7.128;2023-06-10T05:15:55;21.90;1.00
2945;DHT22;1482;51.398;7.128;2023-06-10T05:18:21;21.60;1.00
2945;DHT22;1482;51.398;7.128;2023-06-10T05:20:46;21.20;1.00
2945;DHT22;1482;51.398;7.128;2023-06-10T05:23:12;21.00;1.00
2945;DHT22;1482;51.398;7.128;2023-06-10T05:25:37;20.40;1.00
2945;DHT22;1482;51.398;7.128;2023-06-10T05:28:03;20.40;1.00
2945;DHT22;1482;51.398;7.128;2023-06-10T05:30:29;20.10;1.00
2945;DHT22;1482;51.398;7.128;2023-06-10T05:32:54;19.90;1.00
2945;DHT22;1482;51.398;7.128;2023-06-10T05:35:21;20.00;1.00
2945;DHT22;1482;51.398;7.128;2023-06-10T05:37:47;20.10;1.00
2945;DHT22;1482;51.398;7.128;2023-06-10T05:40:13;20.30;1.00
2945;DHT22;1482;51.398;7.128;2023-06-10T05:42:38;20.40;1.00
2945;DHT22;1482;51.398;7.128;2023-06-10T05:45:05;20.50;1.00
2945;DHT22;1482;51.398;7.128;2023-06-10T05:47:32;20.80;1.00
2945;DHT22;1482;51.398;7.128;2023-06-10T05:49:57;20.80;1.00
2945;DHT22;1482;51.398;7.128;2023-06-10T05:52:23;20.90;1.00
2945;DHT22;1482;51.398;7.128;2023-06-10T05:54:49;21.10;1.00
2945;DHT22;1482;51.398;7.128;2023-06-10T05:57:15;21.10;1.00
2945;DHT22;1482;51.398;7.128;2023-06-10T05:59:41;21.30;1.00
2945;DHT22;1482;51.398;7.128;2023-06-10T06:02:06;21.30;1.00
2945;DHT22;1482;51.398;7.128;2023-06-10T06:04:32;21.40;1.00
2945;DHT22;1482;51.398;7.128;2023-06-10T06:06:57;21.50;1.00
2945;DHT22;1482;51.398;7.128;2023-06-10T06:09:23;21.40;1.00
2945;DHT22;1482;51.398;7.128;2023-06-10T06:11:49;21.60;1.00
2945;DHT22;1482;51.398;7.128;2023-06-10T06:14:14;21.70;1.00
2945;DHT22;1482;51.398;7.128;2023-06-10T06:16:42;22.00;1.00
2945;DHT22;1482;51.398;7.128;2023-06-10T06:19:08;22.10;1.00
2945;DHT22;1482;51.398;7.128;2023-06-10T06:21:34;22.30;1.00
2945;DHT22;1482;51.398;7.128;2023-06-10T06:24:00;22.50;1.00
2945;DHT22;1482;51.398;7.128;2023-06-10T06:26:26;22.50;1.00
2945;DHT22;1482;51.398;7.128;2023-06-10T06:28:52;22.70;1.00
2945;DHT22;1482;51.398;7.128;2023-06-10T06:31:17;22.70;1.00
2945;DHT22;1482;51.398;7.128;2023-06-10T06:33:43;22.70;1.00
2945;DHT22;1482;51.398;7.128;2023-06-10T06:36:09;23.20;1.00
2945;DHT22;1482;51.398;7.128;2023-06-10T06:38:34;23.40;1.00
2945;DHT22;1482;51.398;7.128;2023-06-10T06:41:00;23.10;1.00
2945;DHT22;1482;51.398;7.128;2023-06-10T06:43:29;23.00;1.00
2945;DHT22;1482;51.398;7.128;2023-06-10T06:45:56;23.10;1.00
2945;DHT22;1482;51.398;7.128;2023-06-10T06:48:22;23.10;1.00
2945;DHT22;1482;51.398;7.128;2023-06-10T06:50:48;22.70;1.00
2945;DHT22;1482;51.398;7.128;2023-06-10T06:53:13;22.80;1.00
2945;DHT22;1482;51.398;7.128;2023-06-10T06:55:39;22.90;1.00
2945;DHT22;1482;51.398;7.128;2023-06-10T06:58:04;23.20;1.00
2945;DHT22;1482;51.398;7.128;2023-06-10T07:00:30;23.30;1.00
2945;DHT22;1482;51.398;7.128;2023-06-10T07:02:56;23.60;1.00
2945;DHT22;1482;51.398;7.128;2023-06-10T07:05:22;23.80;1.00
2945;DHT22;1482;51.398;7.128;2023-06-10T07:07:48;24.00;1.00
2945;DHT22;1482;51.398;7.128;2023-06-10T07:10:20;23.90;1.00
2945;DHT22;1482;51.398;7.128;2023-06-10T07:12:47;23.70;1.00
2945;DHT22;1482;51.398;7.128;2023-06-10T07:15:13;23.90;1.00
2945;DHT22;1482;51.398;7.128;2023-06-10T07:17:39;24.20;1.00
2945;DHT22;1482;51.398;7.128;2023-06-10T07:20:05;24.60;1.00
2945;DHT22;1482;51.398;7.128;2023-06-10T07:22:31;25.00;1.00
2945;DHT22;1482;51.398;7.128;2023-06-10T07:24:57;25.10;1.00
2945;DHT22;1482;51.398;7.128;2023-06-10T07:27:23;25.40;1.00
2945;DHT22;1482;51.398;7.128;2023-06-10T07:29:48;25.50;1.00
2945;DHT22;1482;51.398;7.128;2023-06-10T07:32:14;25.60;1.00
2945;DHT22;1482;51.398;7.128;2023-06-10T07:34:39;25.40;1.00
2945;DHT22;1482;51.398;7.128;2023-06-10T07:37:05;25.60;1.00
2945;DHT22;1482;51.398;7.128;2023-06-10T07:39:31;26.00;1.00
2945;DHT22;1482;51.398;7.128;2023-06-10T07:41:56;26.40;1.00
2945;DHT22;1482;51.398;7.128;2023-06-10T07:44:23;26.50;1.00
2945;DHT22;1482;51.398;7.128;2023-06-10T07:46:48;26.50;1.00
2945;DHT22;1482;51.398;7.128;2023-06-10T07:49:14;26.50;1.00
2945;DHT22;1482;51.398;7.128;2023-06-10T07:51:39;26.80;1.00
2945;DHT22;1482;51.398;7.128;2023-06-10T07:54:05;26.70;1.00
2945;DHT22;1482;51.398;7.128;2023-06-10T07:56:30;26.90;1.00
2945;DHT22;1482;51.398;7.128;2023-06-10T07:58:57;26.70;1.00
2945;DHT22;1482;51.398;7.128;2023-06-10T08:01:23;26.40;1.00
2945;DHT22;1482;51.398;7.128;2023-06-10T08:03:49;26.40;1.00
2945;DHT22;1482;51.398;7.128;2023-06-10T08:06:14;26.50;1.00
2945;DHT22;1482;51.398;7.128;2023-06-10T08:08:42;26.50;1.00
2945;DHT22;1482;51.398;7.128;2023-06-10T08:11:10;26.50;1.00
2945;DHT22;1482;51.398;7.128;2023-06-10T08:13:36;26.70;1.00
2945;DHT22;1482;51.398;7.128;2023-06-10T08:16:01;26.90;1.00
2945;DHT22;1482;51.398;7.128;2023-06-10T08:18:29;26.60;1.00
2945;DHT22;1482;51.398;7.128;2023-06-10T08:20:55;26.70;1.00
2945;DHT22;1482;51.398;7.128;2023-06-10T08:23:20;26.80;1.00
2945;DHT22;1482;51.398;7.128;2023-06-10T08:25:46;26.80;1.00
2945;DHT22;1482;51.398;7.128;2023-06-10T08:28:12;26.90;1.00
2945;DHT22;1482;51.398;7.128;2023-06-10T08:30:37;27.40;1.00
2945;DHT22;1482;51.398;7.128;2023-06-10T08:33:03;27.50;1.00
2945;DHT22;1482;51.398;7.128;2023-06-10T08:35:29;27.60;1.00
2945;DHT22;1482;51.398;7.128;2023-06-10T08:37:55;27.60;1.00
2945;DHT22;1482;51.398;7.128;2023-06-10T08:40:20;27.50;1.00
2945;DHT22;1482;51.398;7.128;2023-06-10T08:42:52;27.90;1.00
2945;DHT22;1482;51.398;7.128;2023-06-10T08:45:19;28.10;1.00
2945;DHT22;1482;51.398;7.128;2023-06-10T08:47:50;28.10;1.00
2945;DHT22;1482;51.398;7.128;2023-06-10T08:50:17;27.90;1.00
2945;DHT22;1482;51.398;7.128;2023-06-10T08:52:44;27.70;1.00
2945;DHT22;1482;51.398;7.128;2023-06-10T08:55:23;27.70;1.00
2945;DHT22;1482;51.398;7.128;2023-06-10T08:57:51;27.70;1.00
2945;DHT22;1482;51.398;7.128;2023-06-10T09:00:18;27.90;1.00
2945;DHT22;1482;51.398;7.128;2023-06-10T09:02:44;28.20;1.00
2945;DHT22;1482;51.398;7.128;2023-06-10T09:05:09;28.30;1.00
2945;DHT22;1482;51.398;7.128;2023-06-10T09:07:35;28.30;1.00
2945;DHT22;1482;51.398;7.128;2023-06-10T09:10:02;28.40;1.00
2945;DHT22;1482;51.398;7.128;2023-06-10T09:12:33;28.60;1.00
2945;DHT22;1482;51.398;7.128;2023-06-10T09:14:59;28.40;1.00
2945;DHT22;1482;51.398;7.128;2023-06-10T09:17:25;28.20;1.00
2945;DHT22;1482;51.398;7.128;2023-06-10T09:19:52;28.70;1.00
2945;DHT22;1482;51.398;7.128;2023-06-10T09:22:19;28.70;1.00
2945;DHT22;1482;51.398;7.128;2023-06-10T09:24:46;28.20;1.00
2945;DHT22;1482;51.398;7.128;2023-06-10T09:27:11;28.50;1.00
2945;DHT22;1482;51.398;7.128;2023-06-10T09:29:47;28.50;1.00
2945;DHT22;1482;51.398;7.128;2023-06-10T09:32:13;28.90;1.00
2945;DHT22;1482;51.398;7.128;2023-06-10T09:34:39;28.80;1.00
2945;DHT22;1482;51.398;7.128;2023-06-10T09:37:05;28.90;1.00
2945;DHT22;1482;51.398;7.128;2023-06-10T09:39:31;29.40;1.00
2945;DHT22;1482;51.398;7.128;2023-06-10T09:41:57;29.50;1.00
2945;DHT22;1482;51.398;7.128;2023-06-10T09:44:22;29.50;1.00
2945;DHT22;1482;51.398;7.128;2023-06-10T09:46:50;29.00;1.00
2945;DHT22;1482;51.398;7.128;2023-06-10T09:49:18;29.10;1.00
2945;DHT22;1482;51.398;7.128;2023-06-10T09:51:54;29.40;1.00
2945;DHT22;1482;51.398;7.128;2023-06-10T09:54:20;29.80;1.00
2945;DHT22;1482;51.398;7.128;2023-06-10T09:56:47;29.50;1.00
2945;DHT22;1482;51.398;7.128;2023-06-10T09:59:13;29.80;1.00
2945;DHT22;1482;51.398;7.128;2023-06-10T10:01:39;30.10;1.00
2945;DHT22;1482;51.398;7.128;2023-06-10T10:04:05;30.30;1.00
2945;DHT22;1482;51.398;7.128;2023-06-10T10:06:31;30.50;1.00
2945;DHT22;1482;51.398;7.128;2023-06-10T10:08:57;30.70;1.00
2945;DHT22;1482;51.398;7.128;2023-06-10T10:11:23;30.60;1.00
2945;DHT22;1482;51.398;7.128;2023-06-10T10:13:52;30.60;1.00
2945;DHT22;1482;51.398;7.128;2023-06-10T10:16:20;30.60;1.00
2945;DHT22;1482;51.398;7.128;2023-06-10T10:18:54;30.90;1.00
2945;DHT22;1482;51.398;7.128;2023-06-10T10:21:23;30.90;1.00
2945;DHT22;1482;51.398;7.128;2023-06-10T10:24:01;30.40;1.00
2945;DHT22;1482;51.398;7.128;2023-06-10T10:26:29;30.70;1.00
2945;DHT22;1482;51.398;7.128;2023-06-10T10:29:11;30.80;1.00
2945;DHT22;1482;51.398;7.128;2023-06-10T10:31:37;30.60;1.00
2945;DHT22;1482;51.398;7.128;2023-06-10T10:34:09;31.00;1.00
2945;DHT22;1482;51.398;7.128;2023-06-10T10:36:38;31.00;1.00
2945;DHT22;1482;51.398;7.128;2023-06-10T10:39:04;30.60;1.00
2945;DHT22;1482;51.398;7.128;2023-06-10T10:41:31;30.30;1.00
2945;DHT22;1482;51.398;7.128;2023-06-10T10:43:58;30.50;1.00
2945;DHT22;1482;51.398;7.128;2023-06-10T10:46:24;30.10;1.00
2945;DHT22;1482;51.398;7.128;2023-06-10T10:48:53;30.00;1.00
2945;DHT22;1482;51.398;7.128;2023-06-10T10:51:20;29.80;1.00
2945;DHT22;1482;51.398;7.128;2023-06-10T10:54:12;29.90;1.00
2945;DHT22;1482;51.398;7.128;2023-06-10T10:59:52;30.40;1.00
2945;DHT22;1482;51.398;7.128;2023-06-10T11:02:18;30.60;1.00
2945;DHT22;1482;51.398;7.128;2023-06-10T11:04:52;30.70;1.00
2945;DHT22;1482;51.398;7.128;2023-06-10T11:07:20;31.10;1.00
2945;DHT22;1482;51.398;7.128;2023-06-10T11:12:23;31.40;1.00
2945;DHT22;1482;51.398;7.128;2023-06-10T11:14:54;31.70;1.00
2945;DHT22;1482;51.398;7.128;2023-06-10T11:17:21;31.90;1.00
2945;DHT22;1482;51.398;7.128;2023-06-10T11:19:46;31.50;1.00
2945;DHT22;1482;51.398;7.128;2023-06-10T11:22:16;31.80;1.00
2945;DHT22;1482;51.398;7.128;2023-06-10T11:24:50;31.50;1.00
2945;DHT22;1482;51.398;7.128;2023-06-10T11:27:26;31.50;1.00
2945;DHT22;1482;51.398;7.128;2023-06-10T11:32:33;31.50;1.00
2945;DHT22;1482;51.398;7.128;2023-06-10T11:34:59;30.90;1.00
2945;DHT22;1482;51.398;7.128;2023-06-10T11:37:24;31.00;1.00
2945;DHT22;1482;51.398;7.128;2023-06-10T11:39:54;31.20;1.00
2945;DHT22;1482;51.398;7.128;2023-06-10T11:42:23;31.50;1.00
2945;DHT22;1482;51.398;7.128;2023-06-10T11:44:50;31.20;1.00
2945;DHT22;1482;51.398;7.128;2023-06-10T11:47:20;31.40;1.00
2945;DHT22;1482;51.398;7.128;2023-06-10T11:49:55;30.90;1.00
2945;DHT22;1482;51.398;7.128;2023-06-10T11:52:29;30.80;1.00
2945;DHT22;1482;51.398;7.128;2023-06-10T11:54:55;30.50;1.00
2945;DHT22;1482;51.398;7.128;2023-06-10T11:57:21;30.30;1.00
2945;DHT22;1482;51.398;7.128;2023-06-10T11:59:46;30.50;1.00
2945;DHT22;1482;51.398;7.128;2023-06-10T12:02:16;31.10;1.00
2945;DHT22;1482;51.398;7.128;2023-06-10T12:04:41;30.70;1.00
2945;DHT22;1482;51.398;7.128;2023-06-10T12:07:07;30.30;1.00
2945;DHT22;1482;51.398;7.128;2023-06-10T12:09:33;30.50;1.00
2945;DHT22;1482;51.398;7.128;2023-06-10T12:11:59;30.20;1.00
2945;DHT22;1482;51.398;7.128;2023-06-10T12:14:51;30.20;1.00
2945;DHT22;1482;51.398;7.128;2023-06-10T12:17:20;30.50;1.00
2945;DHT22;1482;51.398;7.128;2023-06-10T12:19:47;30.30;1.00
2945;DHT22;1482;51.398;7.128;2023-06-10T12:22:13;30.30;1.00
2945;DHT22;1482;51.398;7.128;2023-06-10T12:24:57;30.60;1.00
2945;DHT22;1482;51.398;7.128;2023-06-10T12:27:29;30.50;1.00
2945;DHT22;1482;51.398;7.128;2023-06-10T12:29:56;30.80;1.00
2945;DHT22;1482;51.398;7.128;2023-06-10T12:32:40;30.90;1.00
2945;DHT22;1482;51.398;7.128;2023-06-10T12:35:06;30.90;1.00
2945;DHT22;1482;51.398;7.128;2023-06-10T12:37:32;30.80;1.00
2945;DHT22;1482;51.398;7.128;2023-06-10T12:40:04;30.70;1.00
2945;DHT22;1482;51.398;7.128;2023-06-10T12:42:35;30.70;1.00
2945;DHT22;1482;51.398;7.128;2023-06-10T12:45:02;30.50;1.00
2945;DHT22;1482;51.398;7.128;2023-06-10T12:47:35;30.70;1.00
2945;DHT22;1482;51.398;7.128;2023-06-10T12:50:03;30.90;1.00
2945;DHT22;1482;51.398;7.128;2023-06-10T12:52:29;31.00;1.00
2945;DHT22;1482;51.398;7.128;2023-06-10T12:54:55;31.30;1.00
2945;DHT22;1482;51.398;7.128;2023-06-10T12:57:22;31.50;1.00
2945;DHT22;1482;51.398;7.128;2023-06-10T12:59:47;31.50;1.00
2945;DHT22;1482;51.398;7.128;2023-06-10T13:02:18;31.60;1.00
2945;DHT22;1482;51.398;7.128;2023-06-10T13:04:45;31.30;1.00
2945;DHT22;1482;51.398;7.128;2023-06-10T13:07:11;31.60;1.00
2945;DHT22;1482;51.398;7.128;2023-06-10T13:09:36;31.90;1.00
2945;DHT22;1482;51.398;7.128;2023-06-10T13:12:02;32.00;1.00
2945;DHT22;1482;51.398;7.128;2023-06-10T13:14:28;32.20;1.00
2945;DHT22;1482;51.398;7.128;2023-06-10T13:16:54;32.10;1.00
2945;DHT22;1482;51.398;7.128;2023-06-10T13:19:20;31.90;1.00
2945;DHT22;1482;51.398;7.128;2023-06-10T13:21:47;31.90;1.00
2945;DHT22;1482;51.398;7.128;2023-06-10T13:24:13;31.90;1.00
2945;DHT22;1482;51.398;7.128;2023-06-10T13:26:38;32.10;1.00
2945;DHT22;1482;51.398;7.128;2023-06-10T13:29:04;32.30;1.00
2945;DHT22;1482;51.398;7.128;2023-06-10T13:31:30;32.40;1.00
2945;DHT22;1482;51.398;7.128;2023-06-10T13:33:57;31.90;1.00
2945;DHT22;1482;51.398;7.128;2023-06-10T13:36:23;32.10;1.00
2945;DHT22;1482;51.398;7.128;2023-06-10T13:38:51;32.10;1.00
2945;DHT22;1482;51.398;7.128;2023-06-10T13:41:17;31.90;1.00
2945;DHT22;1482;51.398;7.128;2023-06-10T13:43:43;31.80;1.00
2945;DHT22;1482;51.398;7.128;2023-06-10T13:46:08;32.00;1.00
2945;DHT22;1482;51.398;7.128;2023-06-10T13:48:34;32.10;1.00
2945;DHT22;1482;51.398;7.128;2023-06-10T13:51:00;32.10;1.00
2945;DHT22;1482;51.398;7.128;2023-06-10T13:53:26;32.00;1.00
2945;DHT22;1482;51.398;7.128;2023-06-10T13:55:51;32.00;1.00
2945;DHT22;1482;51.398;7.128;2023-06-10T13:58:17;31.80;1.00
2945;DHT22;1482;51.398;7.128;2023-06-10T14:00:43;31.10;1.00
2945;DHT22;1482;51.398;7.128;2023-06-10T14:03:11;31.10;1.00
2945;DHT22;1482;51.398;7.128;2023-06-10T14:05:36;31.10;1.00
2945;DHT22;1482;51.398;7.128;2023-06-10T14:08:02;31.00;1.00
2945;DHT22;1482;51.398;7.128;2023-06-10T14:10:28;30.90;1.00
2945;DHT22;1482;51.398;7.128;2023-06-10T14:12:54;30.60;1.00
2945;DHT22;1482;51.398;7.128;2023-06-10T14:15:20;30.80;1.00
2945;DHT22;1482;51.398;7.128;2023-06-10T14:17:45;31.10;1.00
2945;DHT22;1482;51.398;7.128;2023-06-10T14:20:11;30.60;1.00
2945;DHT22;1482;51.398;7.128;2023-06-10T14:22:37;30.70;1.00
2945;DHT22;1482;51.398;7.128;2023-06-10T14:25:03;30.70;1.00
2945;DHT22;1482;51.398;7.128;2023-06-10T14:27:28;30.60;1.00
2945;DHT22;1482;51.398;7.128;2023-06-10T14:29:54;30.40;1.00
2945;DHT22;1482;51.398;7.128;2023-06-10T14:32:19;30.50;1.00
2945;DHT22;1482;51.398;7.128;2023-06-10T14:34:45;30.40;1.00
2945;DHT22;1482;51.398;7.128;2023-06-10T14:37:12;30.60;1.00
2945;DHT22;1482;51.398;7.128;2023-06-10T14:39:38;30.40;1.00
2945;DHT22;1482;51.398;7.128;2023-06-10T14:42:04;30.50;1.00
2945;DHT22;1482;51.398;7.128;2023-06-10T14:44:30;30.50;1.00
2945;DHT22;1482;51.398;7.128;2023-06-10T14:46:56;30.30;1.00
2945;DHT22;1482;51.398;7.128;2023-06-10T14:49:22;30.50;1.00
2945;DHT22;1482;51.398;7.128;2023-06-10T14:51:47;30.60;1.00
2945;DHT22;1482;51.398;7.128;2023-06-10T14:54:15;30.60;1.00
2945;DHT22;1482;51.398;7.128;2023-06-10T14:56:41;30.50;1.00
2945;DHT22;1482;51.398;7.128;2023-06-10T14:59:07;30.10;1.00
2945;DHT22;1482;51.398;7.128;2023-06-10T15:01:32;30.10;1.00
2945;DHT22;1482;51.398;7.128;2023-06-10T15:03:58;30.00;1.00
2945;DHT22;1482;51.398;7.128;2023-06-10T15:06:23;30.00;1.00
2945;DHT22;1482;51.398;7.128;2023-06-10T15:08:49;30.10;1.00
2945;DHT22;1482;51.398;7.128;2023-06-10T15:11:15;30.10;1.00
2945;DHT22;1482;51.398;7.128;2023-06-10T15:13:40;30.10;1.00
2945;DHT22;1482;51.398;7.128;2023-06-10T15:16:06;29.90;1.00
2945;DHT22;1482;51.398;7.128;2023-06-10T15:18:32;30.00;1.00
2945;DHT22;1482;51.398;7.128;2023-06-10T15:20:58;29.90;1.00
2945;DHT22;1482;51.398;7.128;2023-06-10T15:23:24;29.70;1.00
2945;DHT22;1482;51.398;7.128;2023-06-10T15:25:50;29.50;1.00
2945;DHT22;1482;51.398;7.128;2023-06-10T15:28:15;29.70;1.00
2945;DHT22;1482;51.398;7.128;2023-06-10T15:30:41;29.60;1.00
2945;DHT22;1482;51.398;7.128;2023-06-10T15:33:06;29.30;1.00
2945;DHT22;1482;51.398;7.128;2023-06-10T15:35:32;29.20;1.00
2945;DHT22;1482;51.398;7.128;2023-06-10T15:38:01;29.20;1.00
2945;DHT22;1482;51.398;7.128;2023-06-10T15:40:27;29.10;1.00
2945;DHT22;1482;51.398;7.128;2023-06-10T15:42:53;29.00;1.00
2945;DHT22;1482;51.398;7.128;2023-06-10T15:45:18;29.00;1.00
2945;DHT22;1482;51.398;7.128;2023-06-10T15:47:44;28.90;1.00
2945;DHT22;1482;51.398;7.128;2023-06-10T15:50:10;28.90;1.00
2945;DHT22;1482;51.398;7.128;2023-06-10T15:52:35;29.10;1.00
2945;DHT22;1482;51.398;7.128;2023-06-10T15:55:01;29.10;1.00
2945;DHT22;1482;51.398;7.128;2023-06-10T15:57:30;29.10;1.00
2945;DHT22;1482;51.398;7.128;2023-06-10T15:59:55;29.00;1.00
2945;DHT22;1482;51.398;7.128;2023-06-10T16:02:21;29.00;1.00
2945;DHT22;1482;51.398;7.128;2023-06-10T16:04:46;29.00;1.00
2945;DHT22;1482;51.398;7.128;2023-06-10T16:07:12;28.80;1.00
2945;DHT22;1482;51.398;7.128;2023-06-10T16:09:40;28.90;1.00
2945;DHT22;1482;51.398;7.128;2023-06-10T16:12:06;29.00;1.00
2945;DHT22;1482;51.398;7.128;2023-06-10T16:14:32;29.00;1.00
2945;DHT22;1482;51.398;7.128;2023-06-10T16:16:57;29.00;1.00
2945;DHT22;1482;51.398;7.128;2023-06-10T16:19:24;28.80;1.00
2945;DHT22;1482;51.398;7.128;2023-06-10T16:21:50;28.90;1.00
2945;DHT22;1482;51.398;7.128;2023-06-10T16:24:16;29.00;1.00